sensor_id;sensor_type;location;lat;lon;timestamp;P1;durP1;ratioP1;P2;durP2;ratioP2
57295;SDS011;43146;50.976;18.216;2022-12-10T00:01:15;192.10;;;108.10;;
57295;SDS011;43146;50.976;18.216;2022-12-10T00:03:42;194.00;;;105.80;;
57295;SDS011;43146;50.976;18.216;2022-12-10T00:06:13;198.50;;;103.90;;
57295;SDS011;43146;50.976;18.216;2022-12-10T00:08:40;163.90;;;82.70;;
57295;SDS011;43146;50.976;18.216;2022-12-10T00:11:07;194.10;;;102.70;;
57295;SDS011;43146;50.976;18.216;2022-12-10T00:13:34;182.40;;;97.70;;
57295;SDS011;43146;50.976;18.216;2022-12-10T00:16:01;193.90;;;103.20;;
57295;SDS011;43146;50.976;18.216;2022-12-10T00:18:31;199.40;;;109.40;;
57295;SDS011;43146;50.976;18.216;2022-12-10T00:20:57;196.10;;;99.00;;
57295;SDS011;43146;50.976;18.216;2022-12-10T00:23:23;173.50;;;89.60;;
57295;SDS011;43146;50.976;18.216;2022-12-10T00:25:50;176.50;;;93.60;;
57295;SDS011;43146;50.976;18.216;2022-12-10T00:28:16;166.70;;;84.20;;
57295;SDS011;43146;50.976;18.216;2022-12-10T00:30:41;171.20;;;87.70;;
57295;SDS011;43146;50.976;18.216;2022-12-10T00:33:07;153.20;;;76.80;;
57295;SDS011;43146;50.976;18.216;2022-12-10T00:35:34;175.10;;;88.20;;
57295;SDS011;43146;50.976;18.216;2022-12-10T00:38:01;170.60;;;84.70;;
57295;SDS011;43146;50.976;18.216;2022-12-10T00:40:26;192.50;;;93.60;;
57295;SDS011;43146;50.976;18.216;2022-12-10T00:42:52;152.90;;;73.80;;
57295;SDS011;43146;50.976;18.216;2022-12-10T00:45:17;173.00;;;90.60;;
57295;SDS011;43146;50.976;18.216;2022-12-10T00:47:43;149.70;;;72.90;;
57295;SDS011;43146;50.976;18.216;2022-12-10T00:50:09;147.20;;;74.60;;
57295;SDS011;43146;50.976;18.216;2022-12-10T00:52:35;142.00;;;71.70;;
57295;SDS011;43146;50.976;18.216;2022-12-10T00:55:00;122.60;;;62.30;;
57295;SDS011;43146;50.976;18.216;2022-12-10T00:57:26;165.60;;;86.70;;
57295;SDS011;43146;50.976;18.216;2022-12-10T00:59:51;166.90;;;88.50;;
57295;SDS011;43146;50.976;18.216;2022-12-10T01:02:17;173.50;;;89.00;;
57295;SDS011;43146;50.976;18.216;2022-12-10T01:04:42;162.10;;;78.50;;
57295;SDS011;43146;50.976;18.216;2022-12-10T01:07:08;166.50;;;82.00;;
57295;SDS011;43146;50.976;18.216;2022-12-10T01:09:35;152.20;;;77.80;;
57295;SDS011;43146;50.976;18.216;2022-12-10T01:12:01;165.10;;;81.80;;
57295;SDS011;43146;50.976;18.216;2022-12-10T01:14:29;160.70;;;83.80;;
57295;SDS011;43146;50.976;18.216;2022-12-10T01:16:58;127.90;;;64.80;;
57295;SDS011;43146;50.976;18.216;2022-12-10T01:19:25;138.00;;;62.20;;
57295;SDS011;43146;50.976;18.216;2022-12-10T01:21:52;170.00;;;86.80;;
57295;SDS011;43146;50.976;18.216;2022-12-10T01:24:18;159.50;;;85.60;;
57295;SDS011;43146;50.976;18.216;2022-12-10T01:26:47;131.50;;;68.10;;
57295;SDS011;43146;50.976;18.216;2022-12-10T01:29:13;143.40;;;66.40;;
57295;SDS011;43146;50.976;18.216;2022-12-10T01:31:38;153.40;;;76.00;;
57295;SDS011;43146;50.976;18.216;2022-12-10T01:34:05;160.10;;;83.10;;
57295;SDS011;43146;50.976;18.216;2022-12-10T01:36:35;129.00;;;61.90;;
57295;SDS011;43146;50.976;18.216;2022-12-10T01:39:03;116.70;;;55.50;;
57295;SDS011;43146;50.976;18.216;2022-12-10T01:41:32;112.50;;;51.40;;
57295;SDS011;43146;50.976;18.216;2022-12-10T01:46:38;115.10;;;56.20;;
57295;SDS011;43146;50.976;18.216;2022-12-10T01:49:06;165.40;;;88.80;;
57295;SDS011;43146;50.976;18.216;2022-12-10T01:51:37;137.30;;;59.10;;
57295;SDS011;43146;50.976;18.216;2022-12-10T01:54:05;116.30;;;52.60;;
57295;SDS011;43146;50.976;18.216;2022-12-10T01:56:35;97.50;;;44.50;;
57295;SDS011;43146;50.976;18.216;2022-12-10T01:59:03;73.90;;;33.30;;
57295;SDS011;43146;50.976;18.216;2022-12-10T02:01:34;113.60;;;52.30;;
57295;SDS011;43146;50.976;18.216;2022-12-10T02:12:09;139.80;;;75.00;;
57295;SDS011;43146;50.976;18.216;2022-12-10T02:14:43;131.60;;;67.50;;
57295;SDS011;43146;50.976;18.216;2022-12-10T02:17:16;110.60;;;51.90;;
57295;SDS011;43146;50.976;18.216;2022-12-10T02:19:59;112.10;;;58.10;;
57295;SDS011;43146;50.976;18.216;2022-12-10T02:22:35;136.90;;;69.40;;
57295;SDS011;43146;50.976;18.216;2022-12-10T02:25:06;124.70;;;62.40;;
57295;SDS011;43146;50.976;18.216;2022-12-10T02:27:42;90.10;;;38.30;;
57295;SDS011;43146;50.976;18.216;2022-12-10T02:30:16;135.40;;;64.80;;
57295;SDS011;43146;50.976;18.216;2022-12-10T02:32:42;128.30;;;58.10;;
57295;SDS011;43146;50.976;18.216;2022-12-10T02:35:11;139.30;;;70.00;;
57295;SDS011;43146;50.976;18.216;2022-12-10T02:37:45;134.70;;;67.10;;
57295;SDS011;43146;50.976;18.216;2022-12-10T02:40:22;134.00;;;67.50;;
57295;SDS011;43146;50.976;18.216;2022-12-10T02:43:02;106.50;;;44.40;;
57295;SDS011;43146;50.976;18.216;2022-12-10T02:45:28;133.50;;;60.60;;
57295;SDS011;43146;50.976;18.216;2022-12-10T02:47:56;100.50;;;44.30;;
57295;SDS011;43146;50.976;18.216;2022-12-10T02:50:24;122.30;;;59.10;;
57295;SDS011;43146;50.976;18.216;2022-12-10T02:52:49;115.60;;;50.80;;
57295;SDS011;43146;50.976;18.216;2022-12-10T02:55:15;129.60;;;66.70;;
57295;SDS011;43146;50.976;18.216;2022-12-10T03:00:26;101.90;;;48.00;;
57295;SDS011;43146;50.976;18.216;2022-12-10T03:05:47;129.60;;;65.40;;
57295;SDS011;43146;50.976;18.216;2022-12-10T03:11:15;125.90;;;55.30;;
57295;SDS011;43146;50.976;18.216;2022-12-10T03:13:54;92.70;;;38.50;;
57295;SDS011;43146;50.976;18.216;2022-12-10T03:16:21;128.10;;;61.10;;
57295;SDS011;43146;50.976;18.216;2022-12-10T03:18:49;129.60;;;60.10;;
57295;SDS011;43146;50.976;18.216;2022-12-10T03:21:17;130.00;;;63.70;;
57295;SDS011;43146;50.976;18.216;2022-12-10T03:23:44;115.50;;;56.30;;
57295;SDS011;43146;50.976;18.216;2022-12-10T03:26:11;118.10;;;55.60;;
57295;SDS011;43146;50.976;18.216;2022-12-10T03:28:42;120.50;;;59.80;;
57295;SDS011;43146;50.976;18.216;2022-12-10T03:31:12;105.50;;;49.70;;
57295;SDS011;43146;50.976;18.216;2022-12-10T03:33:38;117.20;;;58.50;;
57295;SDS011;43146;50.976;18.216;2022-12-10T03:36:05;136.70;;;63.80;;
57295;SDS011;43146;50.976;18.216;2022-12-10T03:38:31;128.90;;;61.20;;
57295;SDS011;43146;50.976;18.216;2022-12-10T03:40:57;108.30;;;50.30;;
57295;SDS011;43146;50.976;18.216;2022-12-10T03:43:23;103.50;;;49.20;;
57295;SDS011;43146;50.976;18.216;2022-12-10T03:45:49;120.60;;;58.60;;
57295;SDS011;43146;50.976;18.216;2022-12-10T03:48:14;122.10;;;53.10;;
57295;SDS011;43146;50.976;18.216;2022-12-10T03:50:40;111.20;;;53.00;;
57295;SDS011;43146;50.976;18.216;2022-12-10T03:53:05;106.80;;;47.40;;
57295;SDS011;43146;50.976;18.216;2022-12-10T03:55:31;119.80;;;60.50;;
57295;SDS011;43146;50.976;18.216;2022-12-10T03:57:58;104.40;;;49.00;;
57295;SDS011;43146;50.976;18.216;2022-12-10T04:00:24;122.60;;;56.40;;
57295;SDS011;43146;50.976;18.216;2022-12-10T04:02:50;108.20;;;49.80;;
57295;SDS011;43146;50.976;18.216;2022-12-10T04:05:15;104.10;;;41.60;;
57295;SDS011;43146;50.976;18.216;2022-12-10T04:07:41;122.00;;;49.50;;
57295;SDS011;43146;50.976;18.216;2022-12-10T04:10:06;125.40;;;59.50;;
57295;SDS011;43146;50.976;18.216;2022-12-10T04:12:33;121.50;;;57.20;;
57295;SDS011;43146;50.976;18.216;2022-12-10T04:14:59;104.40;;;47.90;;
57295;SDS011;43146;50.976;18.216;2022-12-10T04:17:43;125.60;;;61.40;;
57295;SDS011;43146;50.976;18.216;2022-12-10T04:20:09;128.30;;;53.80;;
57295;SDS011;43146;50.976;18.216;2022-12-10T04:22:54;101.00;;;47.40;;
57295;SDS011;43146;50.976;18.216;2022-12-10T04:25:39;100.60;;;48.50;;
57295;SDS011;43146;50.976;18.216;2022-12-10T04:28:23;105.20;;;46.50;;
57295;SDS011;43146;50.976;18.216;2022-12-10T04:30:49;111.00;;;49.30;;
57295;SDS011;43146;50.976;18.216;2022-12-10T04:33:14;116.90;;;54.40;;
57295;SDS011;43146;50.976;18.216;2022-12-10T04:35:40;115.00;;;46.80;;
57295;SDS011;43146;50.976;18.216;2022-12-10T04:38:05;123.00;;;56.80;;
57295;SDS011;43146;50.976;18.216;2022-12-10T04:40:31;127.40;;;57.50;;
57295;SDS011;43146;50.976;18.216;2022-12-10T04:42:57;105.30;;;46.00;;
57295;SDS011;43146;50.976;18.216;2022-12-10T04:45:22;92.60;;;38.90;;
57295;SDS011;43146;50.976;18.216;2022-12-10T04:47:48;130.30;;;52.50;;
57295;SDS011;43146;50.976;18.216;2022-12-10T04:50:13;105.40;;;43.80;;
57295;SDS011;43146;50.976;18.216;2022-12-10T04:52:39;124.30;;;50.50;;
57295;SDS011;43146;50.976;18.216;2022-12-10T04:55:04;98.40;;;41.20;;
57295;SDS011;43146;50.976;18.216;2022-12-10T04:57:31;110.50;;;41.60;;
57295;SDS011;43146;50.976;18.216;2022-12-10T04:59:56;139.40;;;55.30;;
57295;SDS011;43146;50.976;18.216;2022-12-10T05:02:22;144.90;;;53.90;;
57295;SDS011;43146;50.976;18.216;2022-12-10T05:04:48;147.00;;;54.70;;
57295;SDS011;43146;50.976;18.216;2022-12-10T05:07:14;151.60;;;53.80;;
57295;SDS011;43146;50.976;18.216;2022-12-10T05:09:39;130.40;;;46.60;;
57295;SDS011;43146;50.976;18.216;2022-12-10T05:12:05;154.00;;;49.10;;
57295;SDS011;43146;50.976;18.216;2022-12-10T05:14:31;141.50;;;52.40;;
57295;SDS011;43146;50.976;18.216;2022-12-10T05:16:56;147.10;;;54.10;;
57295;SDS011;43146;50.976;18.216;2022-12-10T05:19:22;148.70;;;51.20;;
57295;SDS011;43146;50.976;18.216;2022-12-10T05:21:48;143.20;;;47.00;;
57295;SDS011;43146;50.976;18.216;2022-12-10T05:26:59;159.40;;;55.20;;
57295;SDS011;43146;50.976;18.216;2022-12-10T05:29:25;158.10;;;54.70;;
57295;SDS011;43146;50.976;18.216;2022-12-10T05:31:51;130.20;;;49.20;;
57295;SDS011;43146;50.976;18.216;2022-12-10T05:34:16;136.40;;;44.70;;
57295;SDS011;43146;50.976;18.216;2022-12-10T05:36:42;145.20;;;50.50;;
57295;SDS011;43146;50.976;18.216;2022-12-10T05:39:07;101.40;;;36.00;;
57295;SDS011;43146;50.976;18.216;2022-12-10T05:41:35;136.70;;;46.30;;
57295;SDS011;43146;50.976;18.216;2022-12-10T05:44:02;150.60;;;50.00;;
57295;SDS011;43146;50.976;18.216;2022-12-10T05:46:29;134.30;;;45.50;;
57295;SDS011;43146;50.976;18.216;2022-12-10T05:48:56;123.20;;;44.20;;
57295;SDS011;43146;50.976;18.216;2022-12-10T05:51:23;170.50;;;59.50;;
57295;SDS011;43146;50.976;18.216;2022-12-10T05:53:51;143.40;;;52.10;;
57295;SDS011;43146;50.976;18.216;2022-12-10T05:56:18;160.30;;;60.10;;
57295;SDS011;43146;50.976;18.216;2022-12-10T05:58:46;138.90;;;51.40;;
57295;SDS011;43146;50.976;18.216;2022-12-10T06:01:15;146.00;;;49.90;;
57295;SDS011;43146;50.976;18.216;2022-12-10T06:03:42;160.00;;;53.30;;
57295;SDS011;43146;50.976;18.216;2022-12-10T06:06:09;161.00;;;58.50;;
57295;SDS011;43146;50.976;18.216;2022-12-10T06:08:35;156.60;;;49.60;;
57295;SDS011;43146;50.976;18.216;2022-12-10T06:11:02;101.90;;;33.30;;
57295;SDS011;43146;50.976;18.216;2022-12-10T06:13:28;163.10;;;55.60;;
57295;SDS011;43146;50.976;18.216;2022-12-10T06:15:54;169.10;;;59.40;;
57295;SDS011;43146;50.976;18.216;2022-12-10T06:18:20;117.70;;;45.30;;
57295;SDS011;43146;50.976;18.216;2022-12-10T06:20:46;146.00;;;53.50;;
57295;SDS011;43146;50.976;18.216;2022-12-10T06:23:11;144.20;;;54.10;;
57295;SDS011;43146;50.976;18.216;2022-12-10T06:25:38;147.80;;;53.70;;
57295;SDS011;43146;50.976;18.216;2022-12-10T06:28:04;164.60;;;60.40;;
57295;SDS011;43146;50.976;18.216;2022-12-10T06:30:31;132.00;;;43.80;;
57295;SDS011;43146;50.976;18.216;2022-12-10T06:32:57;152.80;;;54.50;;
57295;SDS011;43146;50.976;18.216;2022-12-10T06:35:23;143.60;;;52.80;;
57295;SDS011;43146;50.976;18.216;2022-12-10T06:37:49;134.50;;;49.30;;
57295;SDS011;43146;50.976;18.216;2022-12-10T06:40:15;143.20;;;55.80;;
57295;SDS011;43146;50.976;18.216;2022-12-10T06:42:41;124.60;;;44.10;;
57295;SDS011;43146;50.976;18.216;2022-12-10T06:45:07;122.10;;;46.80;;
57295;SDS011;43146;50.976;18.216;2022-12-10T06:47:33;141.00;;;51.90;;
57295;SDS011;43146;50.976;18.216;2022-12-10T06:49:58;115.00;;;45.60;;
57295;SDS011;43146;50.976;18.216;2022-12-10T06:52:24;55.00;;;16.70;;
57295;SDS011;43146;50.976;18.216;2022-12-10T06:54:50;118.80;;;40.30;;
57295;SDS011;43146;50.976;18.216;2022-12-10T06:57:15;128.20;;;49.20;;
57295;SDS011;43146;50.976;18.216;2022-12-10T06:59:41;132.20;;;50.90;;
57295;SDS011;43146;50.976;18.216;2022-12-10T07:02:07;133.80;;;51.10;;
57295;SDS011;43146;50.976;18.216;2022-12-10T07:04:36;154.40;;;58.40;;
57295;SDS011;43146;50.976;18.216;2022-12-10T07:07:02;118.90;;;44.40;;
57295;SDS011;43146;50.976;18.216;2022-12-10T07:09:28;119.60;;;45.10;;
57295;SDS011;43146;50.976;18.216;2022-12-10T07:11:53;113.90;;;43.00;;
57295;SDS011;43146;50.976;18.216;2022-12-10T07:14:19;99.70;;;38.00;;
57295;SDS011;43146;50.976;18.216;2022-12-10T07:16:44;128.30;;;49.10;;
57295;SDS011;43146;50.976;18.216;2022-12-10T07:19:11;136.50;;;55.60;;
57295;SDS011;43146;50.976;18.216;2022-12-10T07:21:38;98.20;;;38.00;;
57295;SDS011;43146;50.976;18.216;2022-12-10T07:24:06;96.10;;;37.50;;
57295;SDS011;43146;50.976;18.216;2022-12-10T07:26:35;120.30;;;45.90;;
57295;SDS011;43146;50.976;18.216;2022-12-10T07:29:03;109.60;;;43.10;;
57295;SDS011;43146;50.976;18.216;2022-12-10T07:31:30;143.00;;;55.40;;
57295;SDS011;43146;50.976;18.216;2022-12-10T07:33:56;121.70;;;49.70;;
57295;SDS011;43146;50.976;18.216;2022-12-10T07:36:22;136.80;;;49.50;;
57295;SDS011;43146;50.976;18.216;2022-12-10T07:38:48;103.90;;;39.90;;
57295;SDS011;43146;50.976;18.216;2022-12-10T07:41:14;107.60;;;40.50;;
57295;SDS011;43146;50.976;18.216;2022-12-10T07:43:41;114.90;;;46.20;;
57295;SDS011;43146;50.976;18.216;2022-12-10T07:46:27;112.40;;;42.20;;
57295;SDS011;43146;50.976;18.216;2022-12-10T07:48:54;102.20;;;39.60;;
57295;SDS011;43146;50.976;18.216;2022-12-10T07:51:20;141.40;;;60.40;;
57295;SDS011;43146;50.976;18.216;2022-12-10T07:53:48;119.10;;;44.70;;
57295;SDS011;43146;50.976;18.216;2022-12-10T07:56:16;124.30;;;52.90;;
57295;SDS011;43146;50.976;18.216;2022-12-10T07:58:43;111.60;;;43.60;;
57295;SDS011;43146;50.976;18.216;2022-12-10T08:01:10;74.10;;;26.10;;
57295;SDS011;43146;50.976;18.216;2022-12-10T08:03:38;136.20;;;54.80;;
57295;SDS011;43146;50.976;18.216;2022-12-10T08:06:06;137.10;;;58.30;;
57295;SDS011;43146;50.976;18.216;2022-12-10T08:08:35;138.10;;;59.30;;
57295;SDS011;43146;50.976;18.216;2022-12-10T08:11:01;141.30;;;58.60;;
57295;SDS011;43146;50.976;18.216;2022-12-10T08:13:28;110.90;;;45.90;;
57295;SDS011;43146;50.976;18.216;2022-12-10T08:16:00;133.90;;;50.40;;
57295;SDS011;43146;50.976;18.216;2022-12-10T08:18:30;145.10;;;55.00;;
57295;SDS011;43146;50.976;18.216;2022-12-10T08:20:56;139.20;;;54.10;;
57295;SDS011;43146;50.976;18.216;2022-12-10T08:23:21;141.00;;;59.10;;
57295;SDS011;43146;50.976;18.216;2022-12-10T08:25:47;122.40;;;53.70;;
57295;SDS011;43146;50.976;18.216;2022-12-10T08:28:12;137.30;;;54.40;;
57295;SDS011;43146;50.976;18.216;2022-12-10T08:30:38;109.90;;;39.80;;
57295;SDS011;43146;50.976;18.216;2022-12-10T08:33:04;150.50;;;54.20;;
57295;SDS011;43146;50.976;18.216;2022-12-10T08:35:29;124.50;;;51.50;;
57295;SDS011;43146;50.976;18.216;2022-12-10T08:37:55;129.80;;;55.00;;
57295;SDS011;43146;50.976;18.216;2022-12-10T08:40:21;140.90;;;54.10;;
57295;SDS011;43146;50.976;18.216;2022-12-10T08:42:46;141.10;;;57.00;;
57295;SDS011;43146;50.976;18.216;2022-12-10T08:45:12;116.40;;;47.00;;
57295;SDS011;43146;50.976;18.216;2022-12-10T08:47:38;116.10;;;42.70;;
57295;SDS011;43146;50.976;18.216;2022-12-10T08:50:04;77.00;;;25.10;;
57295;SDS011;43146;50.976;18.216;2022-12-10T08:52:30;123.20;;;50.40;;
57295;SDS011;43146;50.976;18.216;2022-12-10T08:54:55;140.80;;;56.30;;
57295;SDS011;43146;50.976;18.216;2022-12-10T08:57:21;127.70;;;48.30;;
57295;SDS011;43146;50.976;18.216;2022-12-10T08:59:47;157.60;;;60.70;;
57295;SDS011;43146;50.976;18.216;2022-12-10T09:02:12;116.00;;;41.70;;
57295;SDS011;43146;50.976;18.216;2022-12-10T09:04:38;129.30;;;49.60;;
57295;SDS011;43146;50.976;18.216;2022-12-10T09:07:04;90.00;;;30.80;;
57295;SDS011;43146;50.976;18.216;2022-12-10T09:09:30;120.50;;;44.00;;
57295;SDS011;43146;50.976;18.216;2022-12-10T09:11:57;76.10;;;28.30;;
57295;SDS011;43146;50.976;18.216;2022-12-10T09:14:23;145.70;;;56.40;;
57295;SDS011;43146;50.976;18.216;2022-12-10T09:16:49;130.60;;;50.40;;
57295;SDS011;43146;50.976;18.216;2022-12-10T09:19:15;144.70;;;55.40;;
57295;SDS011;43146;50.976;18.216;2022-12-10T09:21:41;98.30;;;37.50;;
57295;SDS011;43146;50.976;18.216;2022-12-10T09:24:06;131.70;;;43.20;;
57295;SDS011;43146;50.976;18.216;2022-12-10T09:26:32;101.10;;;33.60;;
57295;SDS011;43146;50.976;18.216;2022-12-10T09:28:58;146.60;;;52.10;;
57295;SDS011;43146;50.976;18.216;2022-12-10T09:31:25;141.70;;;53.10;;
57295;SDS011;43146;50.976;18.216;2022-12-10T09:33:51;149.30;;;52.40;;
57295;SDS011;43146;50.976;18.216;2022-12-10T09:36:19;132.50;;;46.80;;
57295;SDS011;43146;50.976;18.216;2022-12-10T09:38:46;148.90;;;55.60;;
57295;SDS011;43146;50.976;18.216;2022-12-10T09:46:58;138.30;;;50.30;;
57295;SDS011;43146;50.976;18.216;2022-12-10T09:49:40;134.70;;;53.20;;
57295;SDS011;43146;50.976;18.216;2022-12-10T09:52:12;97.70;;;38.00;;
57295;SDS011;43146;50.976;18.216;2022-12-10T09:54:54;84.80;;;30.80;;
57295;SDS011;43146;50.976;18.216;2022-12-10T09:57:28;124.20;;;52.30;;
57295;SDS011;43146;50.976;18.216;2022-12-10T10:03:03;114.80;;;40.80;;
57295;SDS011;43146;50.976;18.216;2022-12-10T10:05:37;141.20;;;53.90;;
57295;SDS011;43146;50.976;18.216;2022-12-10T10:10:50;95.60;;;35.80;;
57295;SDS011;43146;50.976;18.216;2022-12-10T10:13:23;123.10;;;48.30;;
57295;SDS011;43146;50.976;18.216;2022-12-10T10:15:51;118.70;;;40.60;;
57295;SDS011;43146;50.976;18.216;2022-12-10T10:18:32;116.30;;;47.70;;
57295;SDS011;43146;50.976;18.216;2022-12-10T10:21:02;107.00;;;44.90;;
57295;SDS011;43146;50.976;18.216;2022-12-10T10:23:30;97.00;;;38.80;;
57295;SDS011;43146;50.976;18.216;2022-12-10T10:25:56;101.00;;;37.30;;
57295;SDS011;43146;50.976;18.216;2022-12-10T10:28:22;87.80;;;35.10;;
57295;SDS011;43146;50.976;18.216;2022-12-10T10:30:48;111.30;;;46.50;;
57295;SDS011;43146;50.976;18.216;2022-12-10T10:33:16;92.70;;;38.70;;
57295;SDS011;43146;50.976;18.216;2022-12-10T10:35:43;101.80;;;49.60;;
57295;SDS011;43146;50.976;18.216;2022-12-10T10:38:15;112.10;;;43.30;;
57295;SDS011;43146;50.976;18.216;2022-12-10T10:40:44;115.80;;;50.00;;
57295;SDS011;43146;50.976;18.216;2022-12-10T10:43:22;80.30;;;33.60;;
57295;SDS011;43146;50.976;18.216;2022-12-10T10:46:23;108.70;;;50.90;;
57295;SDS011;43146;50.976;18.216;2022-12-10T10:48:42;106.50;;;47.60;;
57295;SDS011;43146;50.976;18.216;2022-12-10T10:58:31;114.00;;;52.90;;
57295;SDS011;43146;50.976;18.216;2022-12-10T11:01:04;103.50;;;45.70;;
57295;SDS011;43146;50.976;18.216;2022-12-10T11:05:59;101.20;;;46.10;;
57295;SDS011;43146;50.976;18.216;2022-12-10T11:08:26;97.60;;;47.50;;
57295;SDS011;43146;50.976;18.216;2022-12-10T11:10:59;108.10;;;49.60;;
57295;SDS011;43146;50.976;18.216;2022-12-10T11:13:31;95.90;;;45.00;;
57295;SDS011;43146;50.976;18.216;2022-12-10T11:16:09;96.70;;;40.80;;
57295;SDS011;43146;50.976;18.216;2022-12-10T11:18:58;98.60;;;45.70;;
57295;SDS011;43146;50.976;18.216;2022-12-10T11:21:28;111.90;;;52.50;;
57295;SDS011;43146;50.976;18.216;2022-12-10T11:23:55;97.00;;;39.80;;
57295;SDS011;43146;50.976;18.216;2022-12-10T11:43:24;111.50;;;50.40;;
57295;SDS011;43146;50.976;18.216;2022-12-10T11:46:25;108.40;;;47.30;;
57295;SDS011;43146;50.976;18.216;2022-12-10T11:54:07;92.80;;;41.70;;
57295;SDS011;43146;50.976;18.216;2022-12-10T11:57:02;94.90;;;42.50;;
57295;SDS011;43146;50.976;18.216;2022-12-10T11:59:34;107.40;;;51.10;;
57295;SDS011;43146;50.976;18.216;2022-12-10T12:07:43;67.10;;;27.60;;
57295;SDS011;43146;50.976;18.216;2022-12-10T12:13:04;90.60;;;43.20;;
57295;SDS011;43146;50.976;18.216;2022-12-10T12:18:04;98.00;;;49.80;;
57295;SDS011;43146;50.976;18.216;2022-12-10T12:23:04;102.50;;;48.40;;
57295;SDS011;43146;50.976;18.216;2022-12-10T12:25:44;84.70;;;40.40;;
57295;SDS011;43146;50.976;18.216;2022-12-10T12:28:19;87.50;;;39.90;;
57295;SDS011;43146;50.976;18.216;2022-12-10T12:36:04;77.10;;;36.80;;
57295;SDS011;43146;50.976;18.216;2022-12-10T12:38:53;102.70;;;47.60;;
57295;SDS011;43146;50.976;18.216;2022-12-10T12:44:23;98.30;;;46.70;;
57295;SDS011;43146;50.976;18.216;2022-12-10T12:47:02;99.80;;;44.90;;
57295;SDS011;43146;50.976;18.216;2022-12-10T12:49:36;117.40;;;59.30;;
57295;SDS011;43146;50.976;18.216;2022-12-10T12:54:53;113.00;;;55.30;;
57295;SDS011;43146;50.976;18.216;2022-12-10T12:57:36;121.50;;;60.50;;
57295;SDS011;43146;50.976;18.216;2022-12-10T13:00:14;125.30;;;64.00;;
57295;SDS011;43146;50.976;18.216;2022-12-10T13:05:28;119.00;;;62.40;;
57295;SDS011;43146;50.976;18.216;2022-12-10T13:13:22;116.70;;;55.20;;
57295;SDS011;43146;50.976;18.216;2022-12-10T13:15:53;113.70;;;50.50;;
57295;SDS011;43146;50.976;18.216;2022-12-10T13:18:21;120.90;;;57.10;;
57295;SDS011;43146;50.976;18.216;2022-12-10T13:23:51;141.10;;;62.10;;
57295;SDS011;43146;50.976;18.216;2022-12-10T13:26:27;126.80;;;61.60;;
57295;SDS011;43146;50.976;18.216;2022-12-10T13:28:56;103.80;;;51.00;;
57295;SDS011;43146;50.976;18.216;2022-12-10T13:31:38;92.40;;;43.40;;
57295;SDS011;43146;50.976;18.216;2022-12-10T13:34:05;130.00;;;59.30;;
57295;SDS011;43146;50.976;18.216;2022-12-10T13:49:58;123.70;;;57.20;;
57295;SDS011;43146;50.976;18.216;2022-12-10T13:55:20;144.10;;;72.80;;
57295;SDS011;43146;50.976;18.216;2022-12-10T14:01:01;121.20;;;58.10;;
57295;SDS011;43146;50.976;18.216;2022-12-10T14:03:55;126.60;;;56.90;;
57295;SDS011;43146;50.976;18.216;2022-12-10T14:06:43;64.40;;;29.90;;
57295;SDS011;43146;50.976;18.216;2022-12-10T14:11:47;131.80;;;62.50;;
57295;SDS011;43146;50.976;18.216;2022-12-10T14:14:23;132.90;;;65.70;;
57295;SDS011;43146;50.976;18.216;2022-12-10T14:16:54;94.00;;;39.90;;
57295;SDS011;43146;50.976;18.216;2022-12-10T14:19:20;73.00;;;28.60;;
57295;SDS011;43146;50.976;18.216;2022-12-10T14:21:46;117.30;;;56.10;;
57295;SDS011;43146;50.976;18.216;2022-12-10T14:27:13;132.90;;;62.20;;
57295;SDS011;43146;50.976;18.216;2022-12-10T14:29:43;96.10;;;40.60;;
57295;SDS011;43146;50.976;18.216;2022-12-10T14:32:16;126.30;;;54.70;;
57295;SDS011;43146;50.976;18.216;2022-12-10T14:34:46;140.80;;;68.50;;
57295;SDS011;43146;50.976;18.216;2022-12-10T14:37:20;116.00;;;50.50;;
57295;SDS011;43146;50.976;18.216;2022-12-10T14:39:49;147.10;;;69.10;;
57295;SDS011;43146;50.976;18.216;2022-12-10T14:42:15;126.40;;;58.50;;
57295;SDS011;43146;50.976;18.216;2022-12-10T14:44:41;118.60;;;55.50;;
57295;SDS011;43146;50.976;18.216;2022-12-10T14:47:18;130.40;;;64.80;;
57295;SDS011;43146;50.976;18.216;2022-12-10T14:49:46;97.10;;;46.10;;
57295;SDS011;43146;50.976;18.216;2022-12-10T14:52:17;130.80;;;63.20;;
57295;SDS011;43146;50.976;18.216;2022-12-10T14:54:45;117.00;;;49.80;;
57295;SDS011;43146;50.976;18.216;2022-12-10T15:00:03;116.10;;;51.40;;
57295;SDS011;43146;50.976;18.216;2022-12-10T15:02:34;120.10;;;51.20;;
57295;SDS011;43146;50.976;18.216;2022-12-10T15:05:03;90.60;;;38.10;;
57295;SDS011;43146;50.976;18.216;2022-12-10T15:07:42;117.10;;;55.40;;
57295;SDS011;43146;50.976;18.216;2022-12-10T15:10:17;115.30;;;50.80;;
57295;SDS011;43146;50.976;18.216;2022-12-10T15:12:46;108.10;;;47.30;;
57295;SDS011;43146;50.976;18.216;2022-12-10T15:15:25;104.10;;;46.60;;
57295;SDS011;43146;50.976;18.216;2022-12-10T15:20:37;116.50;;;49.30;;
57295;SDS011;43146;50.976;18.216;2022-12-10T15:23:20;103.50;;;44.80;;
57295;SDS011;43146;50.976;18.216;2022-12-10T15:25:52;106.60;;;48.40;;
57295;SDS011;43146;50.976;18.216;2022-12-10T15:28:29;101.70;;;46.20;;
57295;SDS011;43146;50.976;18.216;2022-12-10T15:33:42;95.70;;;44.50;;
57295;SDS011;43146;50.976;18.216;2022-12-10T15:36:43;87.40;;;37.30;;
57295;SDS011;43146;50.976;18.216;2022-12-10T15:41:44;116.10;;;53.00;;
57295;SDS011;43146;50.976;18.216;2022-12-10T15:44:19;115.50;;;55.30;;
57295;SDS011;43146;50.976;18.216;2022-12-10T15:49:50;98.40;;;42.70;;
57295;SDS011;43146;50.976;18.216;2022-12-10T15:52:21;118.10;;;50.70;;
57295;SDS011;43146;50.976;18.216;2022-12-10T15:54:51;102.00;;;44.10;;
57295;SDS011;43146;50.976;18.216;2022-12-10T15:57:23;119.70;;;50.00;;
57295;SDS011;43146;50.976;18.216;2022-12-10T15:59:53;69.70;;;29.40;;
57295;SDS011;43146;50.976;18.216;2022-12-10T16:04:58;84.80;;;33.90;;
57295;SDS011;43146;50.976;18.216;2022-12-10T16:07:24;115.90;;;48.60;;
57295;SDS011;43146;50.976;18.216;2022-12-10T16:09:51;110.90;;;54.40;;
57295;SDS011;43146;50.976;18.216;2022-12-10T16:12:16;102.00;;;45.70;;
57295;SDS011;43146;50.976;18.216;2022-12-10T16:14:46;89.20;;;38.40;;
57295;SDS011;43146;50.976;18.216;2022-12-10T16:17:14;134.70;;;65.20;;
57295;SDS011;43146;50.976;18.216;2022-12-10T16:19:40;115.00;;;53.10;;
57295;SDS011;43146;50.976;18.216;2022-12-10T16:22:06;126.60;;;57.40;;
57295;SDS011;43146;50.976;18.216;2022-12-10T16:24:32;106.80;;;44.50;;
57295;SDS011;43146;50.976;18.216;2022-12-10T16:26:57;143.70;;;71.20;;
57295;SDS011;43146;50.976;18.216;2022-12-10T16:29:23;147.20;;;68.40;;
57295;SDS011;43146;50.976;18.216;2022-12-10T16:31:49;119.50;;;50.70;;